createdAt,value
2022-08-14T04:04:02.499Z,10.48
2022-08-14T04:09:07.717Z,11.48
2022-08-14T04:14:15.187Z,11.10
2022-08-14T04:19:20.564Z,10.85
2022-08-14T04:24:23.746Z,10.52
2022-08-14T04:29:28.465Z,11.70
2022-08-14T04:34:41.840Z,9.73
2022-08-14T04:40:03.360Z,12.10
2022-08-14T04:45:06.303Z,11.40
2022-08-14T04:50:08.867Z,10.35
2022-08-14T04:55:11.296Z,10.48
2022-08-14T05:00:16.267Z,9.95
2022-08-14T05:05:21.028Z,11.38
2022-08-14T05:10:32.311Z,12.05
2022-08-14T05:15:36.535Z,9.80
2022-08-14T05:21:59.334Z,9.98
2022-08-14T05:26:14.877Z,11.40
2022-08-14T05:31:20.518Z,10.80
2022-08-14T05:36:23.840Z,11.88
2022-08-14T05:41:27.732Z,11.10
2022-08-14T05:46:49.151Z,9.55
2022-08-14T05:51:52.049Z,9.88
2022-08-14T05:56:55.153Z,9.65
2022-08-14T06:01:57.589Z,9.60
2022-08-14T06:07:00.484Z,10.32
2022-08-14T06:12:04.477Z,9.75
2022-08-14T06:17:07.752Z,9.57
2022-08-14T06:22:10.203Z,9.95
2022-08-14T06:27:15.181Z,11.27
2022-08-14T06:32:38.519Z,10.18
2022-08-14T06:37:45.156Z,10.07
2022-08-14T06:42:50.002Z,9.80
2022-08-14T06:47:53.724Z,9.60
2022-08-14T06:52:56.177Z,9.10
2022-08-14T06:57:58.473Z,9.40
2022-08-14T07:03:21.777Z,9.60
2022-08-14T07:08:31.134Z,9.20
2022-08-14T07:13:34.001Z,9.00
2022-08-14T07:18:37.319Z,8.10
2022-08-14T07:23:44.102Z,8.40
2022-08-14T07:28:46.748Z,7.57
2022-08-14T07:33:51.078Z,8.15
2022-08-14T07:38:54.563Z,8.18
2022-08-14T07:44:00.857Z,8.13
2022-08-14T07:49:24.227Z,8.15
2022-08-14T07:54:30.228Z,7.07
2022-08-14T07:59:41.205Z,6.88
2022-08-14T08:04:47.023Z,6.75
2022-08-14T08:09:56.039Z,6.20
2022-08-14T08:15:03.023Z,6.10
2022-08-14T08:20:12.795Z,5.88
2022-08-14T08:25:17.965Z,4.68
2022-08-14T08:30:21.512Z,4.40
2022-08-14T08:35:46.278Z,3.42
2022-08-14T08:40:50.590Z,3.40
2022-08-14T08:46:06.988Z,3.75
2022-08-14T08:51:31.226Z,3.55
2022-08-14T08:56:41.327Z,5.15
2022-08-14T09:01:56.176Z,4.13
2022-08-14T09:07:10.000Z,4.05
2022-08-14T09:12:15.179Z,3.70
2022-08-14T09:17:17.650Z,3.70
2022-08-14T09:22:35.681Z,3.72
2022-08-14T09:27:39.729Z,3.88
2022-08-14T09:33:11.776Z,3.75
2022-08-14T09:38:42.883Z,4.60
2022-08-14T09:43:48.946Z,3.90
2022-08-14T09:49:29.693Z,3.30
2022-08-14T09:54:38.696Z,3.95
2022-08-14T09:59:46.466Z,4.10
2022-08-14T10:05:28.753Z,3.85
2022-08-14T10:10:41.619Z,3.65
2022-08-14T10:15:46.028Z,3.00
2022-08-14T10:20:57.853Z,3.90
2022-08-14T10:26:06.092Z,3.50
2022-08-14T10:31:29.590Z,4.32
2022-08-14T10:36:47.531Z,3.45
2022-08-14T10:42:04.495Z,3.72
2022-08-14T10:47:40.604Z,3.78
2022-08-14T10:52:43.431Z,3.95
2022-08-14T10:57:52.593Z,3.65
2022-08-14T11:03:01.752Z,3.72
2022-08-14T11:08:09.165Z,3.80
2022-08-14T11:13:23.772Z,3.72
2022-08-14T11:18:32.007Z,4.10
2022-08-14T11:23:41.164Z,3.78
2022-08-14T11:28:50.229Z,3.67
2022-08-14T11:33:59.356Z,3.65
2022-08-14T11:39:01.885Z,3.50
2022-08-14T11:44:13.060Z,3.80
2022-08-14T11:49:34.089Z,3.65
2022-08-14T11:54:37.542Z,3.28
2022-08-14T11:59:44.274Z,3.50
2022-08-14T12:04:52.273Z,3.50
2022-08-14T12:09:56.811Z,3.22
2022-08-14T12:15:00.500Z,3.55
2022-08-14T12:20:06.431Z,3.60
2022-08-14T12:25:14.671Z,3.80
2022-08-14T12:30:35.954Z,3.30
2022-08-14T12:35:44.887Z,3.60
2022-08-14T12:40:56.103Z,3.38
2022-08-14T12:45:58.690Z,4.07
2022-08-14T12:51:01.008Z,3.72
2022-08-14T12:56:22.485Z,3.38
2022-08-14T13:01:56.579Z,3.28
2022-08-14T13:06:54.076Z,3.67
2022-08-14T13:11:58.475Z,3.80
2022-08-14T13:17:20.755Z,3.83
2022-08-14T13:22:33.466Z,3.85
2022-08-14T13:27:39.399Z,3.55
2022-08-14T13:32:45.215Z,3.80
2022-08-14T13:37:49.903Z,4.18
2022-08-14T13:42:57.232Z,3.97
2022-08-14T13:47:59.760Z,3.40
2022-08-14T13:53:03.775Z,4.05
2022-08-14T13:58:06.884Z,3.90
2022-08-14T14:03:34.976Z,3.90
2022-08-14T14:08:53.710Z,4.13
2022-08-14T14:13:58.545Z,3.53
2022-08-14T14:19:08.742Z,4.32
2022-08-14T14:24:15.386Z,3.63
2022-08-14T14:29:26.046Z,3.80
2022-08-14T14:34:33.310Z,3.88
2022-08-14T14:39:37.932Z,4.10
2022-08-14T14:45:05.056Z,3.67
2022-08-14T14:50:11.264Z,3.63
2022-08-14T14:55:16.843Z,3.50
2022-08-14T15:00:20.171Z,3.42
2022-08-14T15:05:23.249Z,3.33
2022-08-14T15:15:37.895Z,3.80
2022-08-14T15:20:42.051Z,3.90
2022-08-14T15:25:53.107Z,3.60
2022-08-14T15:30:58.987Z,3.45
2022-08-14T15:36:03.031Z,3.30
2022-08-14T15:41:08.596Z,3.25
2022-08-14T15:46:41.350Z,3.78
2022-08-14T15:51:36.745Z,3.42
2022-08-14T15:56:45.427Z,3.88
2022-08-14T16:01:54.689Z,3.67
2022-08-14T16:06:57.514Z,3.20
2022-08-14T16:11:59.892Z,3.40
2022-08-14T16:17:04.424Z,3.40
2022-08-14T16:22:58.380Z,3.83
2022-08-14T16:27:40.771Z,3.75
2022-08-14T16:32:54.970Z,3.70
2022-08-14T16:38:00.369Z,3.80
2022-08-14T16:43:26.023Z,3.70
2022-08-14T16:48:55.635Z,3.60
2022-08-14T16:53:54.621Z,3.88
2022-08-14T16:59:12.115Z,3.92
2022-08-14T17:04:24.759Z,4.15
2022-08-14T17:10:09.361Z,4.00
2022-08-14T17:15:14.918Z,3.70
2022-08-14T17:20:51.524Z,4.00
2022-08-14T17:25:49.446Z,5.07
2022-08-14T17:30:56.838Z,5.72
2022-08-14T17:36:21.020Z,6.07
2022-08-14T17:41:26.981Z,19.10
2022-08-14T17:46:49.973Z,6.45
2022-08-14T17:52:17.231Z,5.43
2022-08-14T17:57:24.395Z,5.82
2022-08-14T18:02:31.928Z,5.80
2022-08-14T18:07:59.924Z,6.22
2022-08-14T18:12:59.133Z,5.85
2022-08-14T18:18:09.137Z,6.10
2022-08-14T18:23:12.880Z,6.00
2022-08-14T18:28:51.761Z,6.47
2022-08-14T18:33:51.949Z,6.68
2022-08-14T18:39:29.756Z,7.00
2022-08-14T18:44:50.607Z,6.20
2022-08-14T18:49:52.925Z,6.85
2022-08-14T18:54:59.661Z,7.40
2022-08-14T19:00:33.835Z,7.38
2022-08-14T19:05:47.311Z,7.18
2022-08-14T19:10:59.368Z,7.45
2022-08-14T19:16:23.351Z,7.25
2022-08-14T19:21:34.323Z,7.18
2022-08-14T19:26:54.189Z,7.43
2022-08-14T19:31:59.725Z,7.75
2022-08-14T19:37:06.044Z,7.80
2022-08-14T19:42:14.885Z,10.77
2022-08-14T19:47:41.087Z,8.13
2022-08-14T19:52:45.907Z,8.32
2022-08-14T19:57:58.335Z,8.55
2022-08-14T20:03:14.258Z,10.05
2022-08-14T20:10:59.135Z,8.38
2022-08-14T20:13:45.209Z,7.80
2022-08-14T20:18:50.234Z,6.43
2022-08-14T20:24:31.255Z,4.53
2022-08-14T20:29:39.039Z,6.10
2022-08-14T20:34:51.426Z,7.70
2022-08-14T20:39:55.619Z,28.15
2022-08-14T20:45:18.911Z,16.42
2022-08-14T20:50:28.658Z,21.75
2022-08-14T20:55:37.283Z,19.83
2022-08-14T21:00:51.869Z,16.58
2022-08-14T21:05:58.899Z,11.48
2022-08-14T21:11:02.285Z,10.55
2022-08-14T21:16:33.420Z,10.55
2022-08-14T21:21:41.547Z,10.90
2022-08-14T21:26:52.652Z,10.95
2022-08-14T21:32:20.505Z,10.98
2022-08-14T21:37:23.672Z,10.07
2022-08-14T21:42:27.960Z,10.23
2022-08-14T21:47:30.452Z,10.43
2022-08-14T21:52:52.257Z,17.70
2022-08-14T21:58:51.280Z,13.75
